createdAt,value
2018-06-29T00:00:07.014Z,19.60
2018-06-29T00:01:07.036Z,19.56
2018-06-29T00:02:07.060Z,19.57
2018-06-29T00:03:07.080Z,19.49
2018-06-29T00:04:07.100Z,19.49
2018-06-29T00:05:07.126Z,19.53
2018-06-29T00:06:07.148Z,19.47
2018-06-29T00:07:07.166Z,19.34
2018-06-29T00:08:07.191Z,19.45
2018-06-29T00:09:07.210Z,19.38
2018-06-29T00:10:07.234Z,19.34
2018-06-29T00:11:07.253Z,19.34
2018-06-29T00:12:07.497Z,19.31
2018-06-29T00:13:07.498Z,19.30
2018-06-29T00:14:07.319Z,19.30
2018-06-29T00:15:07.346Z,19.24
2018-06-29T00:16:07.432Z,19.23
2018-06-29T00:17:07.386Z,19.20
2018-06-29T00:18:07.407Z,19.17
2018-06-29T00:19:07.429Z,19.20
2018-06-29T00:20:07.451Z,19.17
2018-06-29T00:21:07.470Z,19.13
2018-06-29T00:22:07.492Z,19.10
2018-06-29T00:23:07.515Z,19.07
2018-06-29T00:24:07.536Z,19.05
2018-06-29T00:25:07.560Z,19.00
2018-06-29T00:26:07.581Z,19.06
2018-06-29T00:27:07.603Z,19.07
2018-06-29T00:28:07.625Z,19.07
2018-06-29T00:29:07.646Z,18.96
2018-06-29T00:30:07.668Z,18.93
2018-06-29T00:31:07.690Z,18.99
2018-06-29T00:32:07.709Z,18.97
2018-06-29T00:33:07.734Z,18.90
2018-06-29T00:34:07.754Z,18.94
2018-06-29T00:35:07.774Z,18.91
2018-06-29T00:36:07.797Z,18.97
2018-06-29T00:37:07.817Z,18.99
2018-06-29T00:38:07.841Z,18.99
2018-06-29T00:39:08.012Z,18.91
2018-06-29T00:40:07.882Z,18.91
2018-06-29T00:41:07.903Z,18.94
2018-06-29T00:42:07.925Z,18.90
2018-06-29T00:43:07.954Z,18.91
2018-06-29T00:44:07.968Z,18.89
2018-06-29T00:45:07.990Z,18.87
2018-06-29T00:46:08.013Z,18.86
2018-06-29T00:47:08.032Z,18.81
2018-06-29T00:48:08.057Z,18.81
2018-06-29T00:49:08.079Z,18.79
2018-06-29T00:50:08.119Z,18.79
2018-06-29T00:51:08.118Z,18.76
2018-06-29T00:52:08.140Z,18.76
2018-06-29T00:53:08.161Z,18.79
2018-06-29T00:54:08.183Z,18.81
2018-06-29T00:55:08.206Z,18.66
2018-06-29T00:56:08.228Z,18.68
2018-06-29T00:57:08.250Z,18.65
2018-06-29T00:58:08.289Z,18.61
2018-06-29T00:59:08.296Z,18.63
2018-06-29T01:00:08.317Z,18.61
2018-06-29T01:01:08.335Z,18.57
2018-06-29T01:02:08.354Z,18.51
2018-06-29T01:03:08.379Z,18.45
2018-06-29T01:04:08.402Z,18.61
2018-06-29T01:05:08.422Z,18.56
2018-06-29T01:06:08.443Z,18.42
2018-06-29T01:07:08.462Z,18.53
2018-06-29T01:08:08.528Z,18.49
2018-06-29T01:09:08.505Z,18.42
2018-06-29T01:10:08.526Z,18.53
2018-06-29T01:11:08.548Z,18.51
2018-06-29T01:12:08.572Z,18.54
2018-06-29T01:13:08.594Z,18.39
2018-06-29T01:14:08.611Z,18.44
2018-06-29T01:15:08.635Z,18.38
2018-06-29T01:16:08.655Z,18.44
2018-06-29T01:17:08.680Z,18.34
2018-06-29T01:18:08.697Z,18.38
2018-06-29T01:19:08.718Z,18.35
2018-06-29T01:20:08.741Z,18.34
2018-06-29T01:21:08.761Z,18.34
2018-06-29T01:22:08.786Z,18.41
2018-06-29T01:23:08.804Z,18.34
2018-06-29T01:24:08.826Z,18.23
2018-06-29T01:25:08.850Z,18.27
2018-06-29T01:26:08.870Z,18.31
2018-06-29T01:27:08.889Z,18.32
2018-06-29T01:28:08.916Z,18.27
2018-06-29T01:29:08.932Z,18.19
2018-06-29T01:30:08.956Z,18.19
2018-06-29T01:31:08.975Z,18.17
2018-06-29T01:32:08.998Z,18.14
2018-06-29T01:33:09.020Z,18.21
2018-06-29T01:34:09.040Z,18.16
2018-06-29T01:35:09.060Z,18.10
2018-06-29T01:36:09.083Z,18.11
2018-06-29T01:37:09.103Z,18.08
2018-06-29T01:38:09.125Z,18.08
2018-06-29T01:39:09.149Z,18.03
2018-06-29T01:40:09.173Z,18.06
2018-06-29T01:41:09.191Z,18.02
2018-06-29T01:42:09.210Z,18.01
2018-06-29T01:43:09.232Z,18.01
2018-06-29T01:44:09.253Z,17.90
2018-06-29T01:45:09.277Z,17.92
2018-06-29T01:46:09.296Z,17.92
2018-06-29T01:47:09.317Z,17.81
2018-06-29T01:48:09.338Z,17.94
2018-06-29T01:49:09.361Z,17.81
2018-06-29T01:50:09.378Z,17.84
2018-06-29T01:51:09.399Z,17.81
2018-06-29T01:52:09.467Z,17.80
2018-06-29T01:53:09.445Z,17.81
2018-06-29T01:54:09.462Z,17.77
2018-06-29T01:55:09.483Z,17.80
2018-06-29T01:56:09.508Z,17.74
2018-06-29T01:57:09.526Z,17.79
2018-06-29T01:58:09.548Z,17.79
2018-06-29T01:59:09.574Z,17.76
2018-06-29T02:00:09.592Z,17.79
2018-06-29T02:01:09.614Z,17.79
2018-06-29T02:02:09.630Z,17.80
2018-06-29T02:03:09.652Z,17.77
2018-06-29T02:04:09.672Z,17.71
2018-06-29T02:05:09.696Z,17.73
2018-06-29T02:06:09.720Z,17.62
2018-06-29T02:07:09.739Z,17.62
2018-06-29T02:08:09.780Z,17.63
2018-06-29T02:09:09.781Z,17.58
2018-06-29T02:10:09.801Z,17.62
2018-06-29T02:11:09.823Z,17.62
2018-06-29T02:12:09.844Z,17.65
2018-06-29T02:13:09.865Z,17.58
2018-06-29T02:14:09.884Z,17.49
2018-06-29T02:15:09.910Z,17.49
2018-06-29T02:16:09.931Z,17.49
2018-06-29T02:17:09.960Z,17.50
2018-06-29T02:18:09.970Z,17.52
2018-06-29T02:19:09.991Z,17.50
2018-06-29T02:20:10.017Z,17.46
2018-06-29T02:21:10.035Z,17.45
2018-06-29T02:22:10.051Z,17.43
2018-06-29T02:23:10.075Z,17.46
2018-06-29T02:24:10.095Z,17.57
2018-06-29T02:25:10.114Z,17.57
2018-06-29T02:26:10.137Z,17.54
2018-06-29T02:27:10.160Z,17.49
2018-06-29T02:28:10.177Z,17.54
2018-06-29T02:29:10.272Z,17.47
2018-06-29T02:30:10.289Z,17.43
2018-06-29T02:31:10.240Z,17.55
2018-06-29T02:32:10.264Z,17.45
2018-06-29T02:33:10.287Z,17.45
2018-06-29T02:34:10.303Z,17.39
2018-06-29T02:35:10.327Z,17.38
2018-06-29T02:36:10.344Z,17.35
2018-06-29T02:37:10.366Z,17.30
2018-06-29T02:38:10.386Z,17.39
2018-06-29T02:39:10.408Z,17.31
2018-06-29T02:40:10.430Z,17.39
2018-06-29T02:41:10.454Z,17.32
2018-06-29T02:42:10.469Z,17.39
2018-06-29T02:43:10.491Z,17.36
2018-06-29T02:44:10.512Z,17.32
2018-06-29T02:45:10.533Z,17.35
2018-06-29T02:46:10.553Z,17.36
2018-06-29T02:47:10.574Z,17.30
2018-06-29T02:48:10.595Z,17.39
2018-06-29T02:49:10.616Z,17.27
2018-06-29T02:50:10.636Z,17.30
2018-06-29T02:51:10.657Z,17.28
2018-06-29T02:52:10.684Z,17.30
2018-06-29T02:53:10.703Z,17.28
2018-06-29T02:54:10.722Z,17.28
2018-06-29T02:55:10.744Z,17.25
2018-06-29T02:56:10.768Z,17.28
2018-06-29T02:57:10.783Z,17.18
2018-06-29T02:58:10.806Z,17.24
2018-06-29T02:59:10.824Z,17.25
2018-06-29T03:00:10.848Z,17.20
2018-06-29T03:01:10.869Z,17.20
2018-06-29T03:02:10.895Z,17.12
2018-06-29T03:03:10.906Z,17.27
2018-06-29T03:04:10.930Z,17.18
2018-06-29T03:05:10.953Z,17.09
2018-06-29T03:06:10.970Z,17.12
2018-06-29T03:07:10.992Z,17.03
2018-06-29T03:08:11.013Z,17.03
2018-06-29T03:09:11.033Z,17.05
2018-06-29T03:10:11.055Z,16.97
2018-06-29T03:11:11.084Z,16.92
2018-06-29T03:12:11.097Z,16.99
2018-06-29T03:13:11.120Z,16.84
2018-06-29T03:14:11.148Z,17.03
2018-06-29T03:15:11.159Z,16.97
2018-06-29T03:16:11.181Z,16.94
2018-06-29T03:17:11.197Z,16.85
2018-06-29T03:18:11.221Z,16.97
2018-06-29T03:19:11.240Z,16.87
2018-06-29T03:20:11.263Z,16.87
2018-06-29T03:21:11.283Z,16.97
2018-06-29T03:22:11.301Z,16.82
2018-06-29T03:23:11.322Z,16.87
2018-06-29T03:24:11.343Z,16.88
2018-06-29T03:25:11.373Z,16.94
2018-06-29T03:26:11.387Z,16.84
2018-06-29T03:27:11.408Z,16.99
2018-06-29T03:28:11.428Z,16.99
2018-06-29T03:29:11.449Z,16.84
2018-06-29T03:30:11.470Z,16.92
2018-06-29T03:31:11.488Z,16.85
2018-06-29T03:32:11.509Z,16.82
2018-06-29T03:33:11.529Z,16.81
2018-06-29T03:34:11.552Z,16.84
2018-06-29T03:35:11.570Z,16.91
2018-06-29T03:36:11.591Z,16.92
2018-06-29T03:37:11.614Z,16.92
2018-06-29T03:38:11.635Z,16.84
2018-06-29T03:39:11.653Z,16.82
2018-06-29T03:40:11.681Z,16.87
2018-06-29T03:41:11.698Z,16.94
2018-06-29T03:42:11.715Z,16.80
2018-06-29T03:43:11.735Z,16.84
2018-06-29T03:44:11.756Z,16.94
2018-06-29T03:45:11.777Z,16.85
2018-06-29T03:46:11.801Z,16.97
2018-06-29T03:47:11.822Z,16.91
2018-06-29T03:48:11.845Z,16.84
2018-06-29T03:49:11.863Z,16.90
2018-06-29T03:50:11.883Z,16.88
2018-06-29T03:51:11.900Z,16.97
2018-06-29T03:52:11.919Z,16.87
2018-06-29T03:53:11.942Z,17.00
2018-06-29T03:54:11.963Z,16.90
2018-06-29T03:55:11.983Z,16.82
2018-06-29T03:56:12.006Z,16.90
2018-06-29T03:57:12.025Z,16.97
2018-06-29T03:58:12.046Z,16.88
2018-06-29T03:59:12.067Z,16.87
2018-06-29T04:00:12.088Z,16.82
2018-06-29T04:01:12.109Z,16.82
2018-06-29T04:02:12.135Z,16.80
2018-06-29T04:03:12.163Z,16.77
2018-06-29T04:04:12.172Z,16.82
2018-06-29T04:05:12.197Z,16.80
2018-06-29T04:06:12.211Z,16.84
2018-06-29T04:07:12.233Z,16.84
2018-06-29T04:08:12.255Z,16.82
2018-06-29T04:09:12.273Z,16.72
2018-06-29T04:10:12.292Z,16.80
2018-06-29T04:11:12.316Z,16.80
2018-06-29T04:12:12.336Z,16.82
2018-06-29T04:13:12.360Z,16.81
2018-06-29T04:14:12.377Z,16.72
2018-06-29T04:15:12.395Z,16.69
2018-06-29T04:16:12.419Z,16.85
2018-06-29T04:17:12.439Z,16.76
2018-06-29T04:18:12.459Z,16.80
2018-06-29T04:19:12.479Z,16.81
2018-06-29T04:20:12.498Z,16.90
2018-06-29T04:21:12.522Z,16.94
2018-06-29T04:22:12.542Z,16.80
2018-06-29T04:23:12.560Z,16.74
2018-06-29T04:24:12.581Z,16.84
2018-06-29T04:25:12.607Z,16.95
2018-06-29T04:26:12.625Z,16.97
2018-06-29T04:27:12.646Z,16.99
2018-06-29T04:28:12.667Z,16.85
2018-06-29T04:29:12.684Z,16.99
2018-06-29T04:30:12.706Z,16.91
2018-06-29T04:31:12.729Z,16.82
2018-06-29T04:32:12.750Z,16.82
2018-06-29T04:33:12.771Z,17.00
2018-06-29T04:34:12.787Z,16.97
2018-06-29T04:35:12.810Z,16.95
2018-06-29T04:36:12.829Z,16.94
2018-06-29T04:37:12.852Z,16.99
2018-06-29T04:38:12.874Z,16.90
2018-06-29T04:39:12.894Z,16.88
2018-06-29T04:40:12.914Z,16.99
2018-06-29T04:41:12.932Z,17.02
2018-06-29T04:42:12.952Z,17.10
2018-06-29T04:43:12.975Z,17.09
2018-06-29T04:44:12.994Z,17.09
2018-06-29T04:45:13.016Z,17.20
2018-06-29T04:46:13.035Z,17.17
2018-06-29T04:47:13.059Z,17.17
2018-06-29T04:48:13.078Z,17.17
2018-06-29T04:49:13.104Z,17.12
2018-06-29T04:50:13.121Z,17.25
2018-06-29T04:51:13.142Z,17.27
2018-06-29T04:52:13.162Z,17.31
2018-06-29T04:53:13.187Z,17.45
2018-06-29T04:54:13.203Z,17.47
2018-06-29T04:55:13.227Z,17.58
2018-06-29T04:56:13.242Z,17.65
2018-06-29T04:57:13.265Z,17.76
2018-06-29T04:58:13.285Z,17.81
2018-06-29T04:59:13.364Z,17.79
2018-06-29T05:00:13.326Z,17.76
2018-06-29T05:01:13.350Z,17.88
2018-06-29T05:02:13.370Z,17.94
2018-06-29T05:03:13.391Z,18.01
2018-06-29T05:04:13.411Z,18.05
2018-06-29T05:05:13.433Z,18.19
2018-06-29T05:06:13.450Z,18.20
2018-06-29T05:07:13.475Z,18.19
2018-06-29T05:08:13.500Z,18.19
2018-06-29T05:09:13.516Z,18.21
2018-06-29T05:10:13.537Z,18.19
2018-06-29T05:11:13.558Z,18.29
2018-06-29T05:12:13.580Z,18.41
2018-06-29T05:13:13.605Z,18.41
2018-06-29T05:14:13.622Z,18.41
2018-06-29T05:15:13.640Z,18.53
2018-06-29T05:16:13.662Z,18.53
2018-06-29T05:17:13.686Z,18.47
2018-06-29T05:18:13.707Z,18.60
2018-06-29T05:19:13.729Z,18.72
2018-06-29T05:20:13.751Z,18.69
2018-06-29T05:21:13.773Z,18.90
2018-06-29T05:22:13.791Z,18.91
2018-06-29T05:23:13.816Z,18.94
2018-06-29T05:24:13.834Z,18.96
2018-06-29T05:25:13.857Z,18.96
2018-06-29T05:26:13.879Z,18.97
2018-06-29T05:27:13.901Z,19.10
2018-06-29T05:28:13.922Z,19.12
2018-06-29T05:29:13.942Z,19.24
2018-06-29T05:30:13.965Z,19.25
2018-06-29T05:31:13.986Z,19.17
2018-06-29T05:32:14.010Z,19.19
2018-06-29T05:33:14.034Z,19.23
2018-06-29T05:34:14.055Z,19.32
2018-06-29T05:35:14.077Z,19.37
2018-06-29T05:36:14.097Z,19.32
2018-06-29T05:37:14.120Z,19.49
2018-06-29T05:38:14.141Z,19.60
2018-06-29T05:39:14.162Z,19.53
2018-06-29T05:40:14.187Z,19.55
2018-06-29T05:41:14.217Z,19.64
2018-06-29T05:42:14.227Z,19.72
2018-06-29T05:43:14.249Z,19.85
2018-06-29T05:44:14.274Z,19.85
2018-06-29T05:45:14.297Z,19.74
2018-06-29T05:46:14.330Z,19.87
2018-06-29T05:47:14.341Z,20.02
2018-06-29T05:48:14.361Z,20.02
2018-06-29T05:49:14.440Z,20.16
2018-06-29T05:50:14.406Z,20.19
2018-06-29T05:51:14.429Z,20.18
2018-06-29T05:52:14.451Z,20.26
2018-06-29T05:53:14.475Z,20.41
2018-06-29T05:54:14.499Z,20.57
2018-06-29T05:55:14.520Z,20.57
2018-06-29T05:56:14.544Z,20.79
2018-06-29T05:57:14.568Z,20.76
2018-06-29T05:58:14.590Z,20.96
2018-06-29T05:59:14.614Z,21.11
2018-06-29T06:00:14.637Z,21.16
2018-06-29T06:01:14.656Z,21.13
2018-06-29T06:02:14.682Z,21.22
2018-06-29T06:03:14.703Z,21.15
2018-06-29T06:04:14.726Z,21.30
2018-06-29T06:05:14.749Z,21.38
2018-06-29T06:06:14.772Z,21.45
2018-06-29T06:07:14.799Z,21.48
2018-06-29T06:08:14.822Z,21.59
2018-06-29T06:09:14.844Z,21.61
2018-06-29T06:10:14.870Z,21.73
2018-06-29T06:11:14.892Z,21.90
2018-06-29T06:12:14.916Z,21.80
2018-06-29T06:13:14.937Z,21.85
2018-06-29T06:14:14.975Z,21.73
2018-06-29T06:15:14.986Z,22.02
2018-06-29T06:16:15.012Z,22.05
2018-06-29T06:17:15.035Z,22.20
2018-06-29T06:18:15.056Z,22.34
2018-06-29T06:19:15.081Z,22.45
2018-06-29T06:20:15.108Z,22.59
2018-06-29T06:21:15.131Z,22.64
2018-06-29T06:22:15.156Z,22.78
2018-06-29T06:23:15.178Z,22.82
2018-06-29T06:24:15.207Z,22.86
2018-06-29T06:25:15.230Z,22.75
2018-06-29T06:26:15.250Z,22.67
2018-06-29T06:27:15.275Z,22.70
2018-06-29T06:28:15.300Z,22.79
2018-06-29T06:29:15.325Z,23.00
2018-06-29T06:30:15.351Z,23.16
2018-06-29T06:31:15.374Z,23.28
2018-06-29T06:32:15.399Z,23.38
2018-06-29T06:33:15.580Z,23.44
2018-06-29T06:34:15.451Z,23.44
2018-06-29T06:35:15.477Z,23.34
2018-06-29T06:36:15.500Z,23.41
2018-06-29T06:37:15.528Z,23.52
2018-06-29T06:38:15.550Z,23.66
2018-06-29T06:39:15.577Z,23.84
2018-06-29T06:40:15.602Z,23.92
2018-06-29T06:41:15.625Z,24.04
2018-06-29T06:42:15.652Z,24.07
2018-06-29T06:43:15.678Z,24.26
2018-06-29T06:44:15.704Z,24.12
2018-06-29T06:45:15.729Z,24.14
2018-06-29T06:46:15.755Z,24.04
2018-06-29T06:47:15.781Z,23.79
2018-06-29T06:48:15.806Z,24.04
2018-06-29T06:49:15.832Z,23.96
2018-06-29T06:50:15.858Z,24.12
2018-06-29T06:51:15.887Z,24.17
2018-06-29T06:52:15.909Z,24.27
2018-06-29T06:53:15.936Z,24.36
2018-06-29T06:54:15.960Z,24.40
2018-06-29T06:55:15.988Z,24.37
2018-06-29T06:56:16.022Z,24.34
2018-06-29T06:57:16.041Z,24.36
2018-06-29T06:58:16.067Z,24.34
2018-06-29T06:59:16.093Z,24.37
2018-06-29T07:00:16.123Z,24.27
2018-06-29T07:01:16.147Z,24.37
2018-06-29T07:02:16.173Z,24.45
2018-06-29T07:03:16.200Z,24.67
2018-06-29T07:04:16.231Z,24.56
2018-06-29T07:05:16.255Z,24.71
2018-06-29T07:06:16.281Z,24.52
2018-06-29T07:07:16.308Z,24.45
2018-06-29T07:08:16.342Z,24.30
2018-06-29T07:09:16.365Z,24.45
2018-06-29T07:10:16.391Z,24.58
2018-06-29T07:11:16.420Z,24.92
2018-06-29T07:12:16.444Z,25.14
2018-06-29T07:13:16.475Z,25.12
2018-06-29T07:14:16.498Z,25.24
2018-06-29T07:15:16.525Z,25.27
2018-06-29T07:16:16.553Z,25.42
2018-06-29T07:17:16.584Z,25.69
2018-06-29T07:18:16.671Z,25.79
2018-06-29T07:19:16.636Z,25.94
2018-06-29T07:20:16.664Z,26.06
2018-06-29T07:21:16.691Z,25.96
2018-06-29T07:22:16.721Z,26.09
2018-06-29T07:23:16.746Z,26.37
2018-06-29T07:24:16.775Z,26.31
2018-06-29T07:25:16.803Z,26.20
2018-06-29T07:26:16.833Z,26.20
2018-06-29T07:27:16.861Z,26.22
2018-06-29T07:28:16.887Z,26.26
2018-06-29T07:29:16.918Z,26.19
2018-06-29T07:30:16.943Z,26.41
2018-06-29T07:31:16.972Z,26.45
2018-06-29T07:32:17.004Z,26.47
2018-06-29T07:33:17.032Z,26.41
2018-06-29T07:34:17.058Z,26.57
2018-06-29T07:35:17.085Z,26.64
2018-06-29T07:36:17.118Z,26.93
2018-06-29T07:37:17.144Z,27.08
2018-06-29T07:38:17.174Z,26.81
2018-06-29T07:39:17.204Z,26.82
2018-06-29T07:40:17.232Z,27.16
2018-06-29T07:41:17.261Z,27.34
2018-06-29T07:42:17.296Z,27.31
2018-06-29T07:43:17.316Z,27.06
2018-06-29T07:44:17.346Z,27.33
2018-06-29T07:45:17.380Z,27.38
2018-06-29T07:46:17.404Z,27.52
2018-06-29T07:47:17.433Z,27.80
2018-06-29T07:48:17.466Z,27.99
2018-06-29T07:49:17.495Z,28.20
2018-06-29T07:50:17.525Z,28.20
2018-06-29T07:51:17.553Z,28.18
2018-06-29T07:52:17.584Z,28.42
2018-06-29T07:53:17.611Z,28.49
2018-06-29T07:54:17.641Z,28.36
2018-06-29T07:55:17.672Z,28.36
2018-06-29T07:56:17.721Z,28.42
2018-06-29T07:57:17.734Z,28.31
2018-06-29T07:58:17.938Z,28.58
2018-06-29T07:59:17.791Z,28.79
2018-06-29T08:00:17.823Z,28.85
2018-06-29T08:01:17.857Z,28.98
2018-06-29T08:02:17.880Z,29.10
2018-06-29T08:03:17.913Z,29.35
2018-06-29T08:04:17.941Z,29.18
2018-06-29T08:05:17.976Z,29.21
2018-06-29T08:06:18.004Z,28.78
2018-06-29T08:07:18.034Z,28.63
2018-06-29T08:08:18.065Z,29.06
2018-06-29T08:09:18.095Z,28.95
2018-06-29T08:10:18.124Z,28.91
2018-06-29T08:11:18.157Z,29.33
2018-06-29T08:12:18.188Z,29.36
2018-06-29T08:13:18.219Z,29.30
2018-06-29T08:14:18.250Z,29.33
2018-06-29T08:15:18.281Z,29.36
2018-06-29T08:16:18.311Z,29.36
2018-06-29T08:17:18.344Z,29.33
2018-06-29T08:18:18.374Z,29.92
2018-06-29T08:19:18.403Z,30.24
2018-06-29T08:20:18.437Z,30.32
2018-06-29T08:21:18.466Z,30.29
2018-06-29T08:22:18.499Z,30.26
2018-06-29T08:23:18.528Z,30.26
2018-06-29T08:24:18.610Z,30.31
2018-06-29T08:25:18.591Z,30.22
2018-06-29T08:26:18.620Z,30.32
2018-06-29T08:27:18.654Z,30.26
2018-06-29T08:28:18.686Z,30.40
2018-06-29T08:29:18.714Z,30.47
2018-06-29T08:30:18.747Z,30.31
2018-06-29T08:31:18.780Z,30.47
2018-06-29T08:32:18.809Z,30.63
2018-06-29T08:33:18.841Z,30.71
2018-06-29T08:34:18.875Z,30.64
2018-06-29T08:35:18.907Z,30.51
2018-06-29T08:36:18.942Z,30.69
2018-06-29T08:37:18.970Z,30.84
2018-06-29T08:38:19.002Z,31.18
2018-06-29T08:39:19.033Z,30.96
2018-06-29T08:40:19.062Z,30.78
2018-06-29T08:41:19.093Z,30.86
2018-06-29T08:42:19.129Z,31.19
2018-06-29T08:43:19.161Z,31.26
2018-06-29T08:44:19.295Z,31.44
2018-06-29T08:45:19.222Z,31.67
2018-06-29T08:46:19.260Z,31.62
2018-06-29T08:47:19.288Z,31.60
2018-06-29T08:48:19.319Z,31.60
2018-06-29T08:49:19.352Z,31.60
2018-06-29T08:50:19.383Z,31.67
2018-06-29T08:51:19.415Z,31.97
2018-06-29T08:52:19.530Z,31.60
2018-06-29T08:53:19.482Z,31.36
2018-06-29T08:54:19.510Z,31.63
2018-06-29T08:55:19.542Z,31.62
2018-06-29T08:56:19.574Z,31.80
2018-06-29T08:57:19.609Z,31.60
2018-06-29T08:58:19.641Z,31.41
2018-06-29T08:59:19.670Z,31.50
2018-06-29T09:00:19.705Z,31.49
2018-06-29T09:01:19.735Z,31.33
2018-06-29T09:02:19.771Z,30.71
2018-06-29T09:03:19.802Z,31.06
2018-06-29T09:04:19.835Z,31.03
2018-06-29T09:05:19.869Z,30.99
2018-06-29T09:06:19.899Z,31.28
2018-06-29T09:07:19.934Z,31.18
2018-06-29T09:08:19.965Z,31.23
2018-06-29T09:09:19.996Z,31.06
2018-06-29T09:10:20.026Z,31.28
2018-06-29T09:11:20.058Z,31.55
2018-06-29T09:12:20.094Z,31.80
2018-06-29T09:13:20.125Z,31.98
2018-06-29T09:14:20.157Z,32.32
2018-06-29T09:15:20.191Z,32.27
2018-06-29T09:16:20.221Z,32.06
2018-06-29T09:17:20.256Z,31.60
2018-06-29T09:18:20.286Z,31.63
2018-06-29T09:19:20.317Z,31.56
2018-06-29T09:20:20.349Z,31.60
2018-06-29T09:21:20.385Z,31.53
2018-06-29T09:22:20.415Z,32.06
2018-06-29T09:23:20.446Z,32.34
2018-06-29T09:24:20.520Z,32.15
2018-06-29T09:25:20.515Z,32.17
2018-06-29T09:26:20.552Z,32.05
2018-06-29T09:27:20.578Z,32.08
2018-06-29T09:28:20.611Z,32.12
2018-06-29T09:29:20.644Z,32.17
2018-06-29T09:30:20.673Z,32.32
2018-06-29T09:31:20.713Z,31.95
2018-06-29T09:32:20.738Z,32.00
2018-06-29T09:33:20.773Z,32.13
2018-06-29T09:34:20.805Z,32.53
2018-06-29T09:35:20.837Z,32.72
2018-06-29T09:36:20.895Z,32.81
2018-06-29T09:37:20.900Z,33.29
2018-06-29T09:38:20.931Z,33.18
2018-06-29T09:39:20.964Z,32.76
2018-06-29T09:40:20.997Z,32.69
2018-06-29T09:41:21.030Z,32.43
2018-06-29T09:42:21.063Z,32.35
2018-06-29T09:43:21.096Z,32.75
2018-06-29T09:44:21.127Z,32.96
2018-06-29T09:45:21.161Z,32.74
2018-06-29T09:46:21.195Z,32.76
2018-06-29T09:47:21.228Z,32.75
2018-06-29T09:48:21.258Z,32.37
2018-06-29T09:49:21.290Z,33.02
2018-06-29T09:50:21.322Z,33.05
2018-06-29T09:51:21.355Z,32.90
2018-06-29T09:52:21.390Z,33.34
2018-06-29T09:53:21.423Z,32.72
2018-06-29T09:54:21.457Z,33.12
2018-06-29T09:55:21.489Z,33.16
2018-06-29T09:56:21.519Z,33.56
2018-06-29T09:57:21.554Z,33.43
2018-06-29T09:58:21.586Z,33.41
2018-06-29T09:59:21.619Z,33.16
2018-06-29T10:00:21.656Z,33.03
2018-06-29T10:01:21.788Z,33.34
2018-06-29T10:02:21.718Z,33.23
2018-06-29T10:03:21.748Z,33.13
2018-06-29T10:04:21.783Z,33.06
2018-06-29T10:05:21.814Z,33.11
2018-06-29T10:06:21.909Z,33.05
2018-06-29T10:07:21.888Z,33.18
2018-06-29T10:08:21.918Z,33.40
2018-06-29T10:09:21.946Z,33.52
2018-06-29T10:10:21.980Z,33.71
2018-06-29T10:11:22.013Z,33.55
2018-06-29T10:12:22.045Z,33.68
2018-06-29T10:13:22.081Z,33.20
2018-06-29T10:14:22.114Z,33.28
2018-06-29T10:15:22.148Z,32.91
2018-06-29T10:16:22.178Z,32.96
2018-06-29T10:17:22.214Z,32.89
2018-06-29T10:18:22.242Z,33.32
2018-06-29T10:19:22.283Z,33.41
2018-06-29T10:20:22.308Z,33.23
2018-06-29T10:21:22.343Z,33.21
2018-06-29T10:22:22.419Z,33.41
2018-06-29T10:23:22.408Z,33.66
2018-06-29T10:24:22.591Z,33.77
2018-06-29T10:25:22.483Z,33.73
2018-06-29T10:26:22.508Z,34.27
2018-06-29T10:27:22.540Z,34.56
2018-06-29T10:28:22.572Z,34.55
2018-06-29T10:29:22.606Z,34.59
2018-06-29T10:30:22.637Z,34.84
2018-06-29T10:31:22.671Z,34.64
2018-06-29T10:32:22.708Z,35.11
2018-06-29T10:33:22.740Z,34.78
2018-06-29T10:34:22.772Z,34.72
2018-06-29T10:35:22.805Z,34.49
2018-06-29T10:36:22.840Z,34.41
2018-06-29T10:37:22.874Z,34.40
2018-06-29T10:38:22.904Z,34.26
2018-06-29T10:39:22.937Z,34.12
2018-06-29T10:40:22.973Z,34.17
2018-06-29T10:41:23.010Z,34.15
2018-06-29T10:42:23.038Z,34.17
2018-06-29T10:43:23.070Z,34.03
2018-06-29T10:44:23.104Z,34.19
2018-06-29T10:45:23.137Z,34.15
2018-06-29T10:46:23.170Z,34.11
2018-06-29T10:47:23.206Z,33.89
2018-06-29T10:48:23.241Z,34.06
2018-06-29T10:49:23.272Z,34.58
2018-06-29T10:50:23.306Z,34.67
2018-06-29T10:51:23.588Z,34.91
2018-06-29T10:52:23.369Z,34.78
2018-06-29T10:53:23.407Z,34.99
2018-06-29T10:54:23.439Z,35.06
2018-06-29T10:55:23.472Z,34.90
2018-06-29T10:56:23.507Z,35.15
2018-06-29T10:57:23.541Z,35.30
2018-06-29T10:58:23.573Z,35.35
2018-06-29T10:59:23.605Z,35.49
2018-06-29T11:00:23.638Z,35.62
2018-06-29T11:01:23.675Z,35.53
2018-06-29T11:02:23.707Z,35.49
2018-06-29T11:03:23.741Z,35.35
2018-06-29T11:04:23.773Z,34.79
2018-06-29T11:05:23.850Z,34.75
2018-06-29T11:06:23.839Z,34.51
2018-06-29T11:07:23.872Z,34.45
2018-06-29T11:08:23.905Z,34.37
2018-06-29T11:09:23.939Z,34.45
2018-06-29T11:10:23.975Z,34.33
2018-06-29T11:11:24.006Z,34.08
2018-06-29T11:12:24.043Z,34.14
2018-06-29T11:13:24.078Z,33.90
2018-06-29T11:14:24.106Z,34.46
2018-06-29T11:15:24.140Z,34.55
2018-06-29T11:16:24.176Z,34.66
2018-06-29T11:17:24.209Z,34.61
2018-06-29T11:18:24.240Z,34.37
2018-06-29T11:19:24.274Z,34.17
2018-06-29T11:20:24.310Z,34.29
2018-06-29T11:21:24.343Z,34.22
2018-06-29T11:22:24.374Z,34.49
2018-06-29T11:23:24.408Z,34.56
2018-06-29T11:24:24.443Z,34.46
2018-06-29T11:25:24.480Z,34.78
2018-06-29T11:26:24.507Z,34.41
2018-06-29T11:27:24.540Z,34.17
2018-06-29T11:28:24.575Z,34.22
2018-06-29T11:29:24.610Z,34.21
2018-06-29T11:30:24.681Z,34.49
2018-06-29T11:31:24.675Z,34.39
2018-06-29T11:32:24.710Z,34.45
2018-06-29T11:33:24.744Z,34.41
2018-06-29T11:34:24.776Z,34.39
2018-06-29T11:35:24.812Z,34.05
2018-06-29T11:36:24.841Z,34.11
2018-06-29T11:37:24.875Z,34.11
2018-06-29T11:38:24.908Z,34.39
2018-06-29T11:39:24.944Z,34.02
2018-06-29T11:40:24.976Z,34.18
2018-06-29T11:41:25.010Z,34.63
2018-06-29T11:42:25.071Z,35.01
2018-06-29T11:43:25.075Z,35.30
2018-06-29T11:44:25.109Z,35.42
2018-06-29T11:45:25.142Z,35.39
2018-06-29T11:46:25.176Z,35.18
2018-06-29T11:47:25.208Z,35.16
2018-06-29T11:48:25.238Z,35.12
2018-06-29T11:49:25.276Z,34.78
2018-06-29T11:50:25.305Z,34.51
2018-06-29T11:51:25.348Z,34.51
2018-06-29T11:52:25.374Z,34.61
2018-06-29T11:53:25.404Z,34.45
2018-06-29T11:54:25.437Z,34.33
2018-06-29T11:55:25.470Z,34.40
2018-06-29T11:56:25.506Z,34.36
2018-06-29T11:57:25.538Z,34.12
2018-06-29T11:58:25.569Z,34.06
2018-06-29T11:59:25.604Z,34.45
2018-06-29T12:00:25.636Z,34.79
2018-06-29T12:01:25.669Z,34.61
2018-06-29T12:02:25.701Z,35.20
2018-06-29T12:03:25.737Z,35.16
2018-06-29T12:04:25.771Z,34.89
2018-06-29T12:05:25.802Z,35.12
2018-06-29T12:06:25.835Z,35.15
2018-06-29T12:07:25.867Z,35.11
2018-06-29T12:08:25.901Z,34.91
2018-06-29T12:09:25.930Z,34.91
2018-06-29T12:10:25.966Z,35.18
2018-06-29T12:11:25.996Z,34.87
2018-06-29T12:12:26.028Z,34.24
2018-06-29T12:13:26.063Z,33.97
2018-06-29T12:14:26.095Z,33.90
2018-06-29T12:15:26.129Z,33.81
2018-06-29T12:16:26.160Z,33.80
2018-06-29T12:17:26.191Z,33.66
2018-06-29T12:18:26.225Z,33.65
2018-06-29T12:19:26.259Z,33.65
2018-06-29T12:20:26.290Z,33.28
2018-06-29T12:21:26.324Z,33.39
2018-06-29T12:22:26.352Z,33.48
2018-06-29T12:23:26.400Z,33.48
2018-06-29T12:24:26.418Z,33.46
2018-06-29T12:25:26.535Z,33.24
2018-06-29T12:26:26.482Z,33.37
2018-06-29T12:27:26.517Z,33.21
2018-06-29T12:28:26.544Z,32.81
2018-06-29T12:29:26.579Z,32.83
2018-06-29T12:30:26.607Z,32.84
2018-06-29T12:31:26.640Z,32.57
2018-06-29T12:32:26.672Z,32.30
2018-06-29T12:33:26.702Z,32.43
2018-06-29T12:34:26.732Z,32.67
2018-06-29T12:35:26.767Z,32.69
2018-06-29T12:36:26.795Z,32.71
2018-06-29T12:37:26.826Z,32.94
2018-06-29T12:38:26.864Z,32.71
2018-06-29T12:39:26.891Z,32.47
2018-06-29T12:40:26.918Z,32.16
2018-06-29T12:41:26.953Z,31.88
2018-06-29T12:42:26.983Z,31.95
2018-06-29T12:43:27.013Z,31.67
2018-06-29T12:44:27.044Z,31.70
2018-06-29T12:45:27.073Z,31.65
2018-06-29T12:46:27.103Z,31.78
2018-06-29T12:47:27.131Z,31.70
2018-06-29T12:48:27.165Z,31.62
2018-06-29T12:49:27.194Z,31.50
2018-06-29T12:50:27.225Z,31.49
2018-06-29T12:51:27.258Z,31.65
2018-06-29T12:52:27.282Z,31.30